METAR Data
IDs: Format: Raw Decoded Include TAF

Data at: 0240 UTC 29 Nov 2020

METAR for:KCSQ (Creston Muni, IA, US)
Text:KCSQ 290235Z AUTO 21009KT 10SM CLR 04/00 A3001 RMK AO2
Temperature: 4.0°C ( 39°F)
Dewpoint: 0.0°C ( 32°F) [RH = 75%]
Pressure (altimeter):30.01 inches Hg (1016.3 mb)
Winds:from the SSW (210 degrees) at 10 MPH (9 knots; 4.6 m/s)
Visibility:10 or more sm (16+ km)
Ceiling:at least 12,000 feet AGL
Clouds:sky clear below 12,000 feet AGL
QC Flag:automated observation with no human augmentation